CheckWX is a tool to help pilots better visualize weather data.  It is not intended as a substitute for an official pre-flight weather briefing.

12:21:13 UTC

ETWM METAR
Meppe Airport
Germany
Current

1 hour ago

ETWM 181120Z 18006KT 9999 FEW380 13/00 Q1017 BLU+
Observed
Feb-18 @ 11:20 UTC
Wind
  • 180° at 6 KTS
Visibility
10,000+ meters
Flight Rules
VFR
Cloud Levels
  • Few at 38,000' AGL
Temperature
13°C / 55°F
Dewpoint
C / 32°F
Humidity
41%
Altimeter
30.03" Hg
Pressure
1016.92 hPa
Previous

2 hours ago

ETWM 181020Z 18006KT 9999 FEW380 11/00 Q1018 BLU+
Observed
Feb-18 @ 10:20 UTC
Wind
  • 180° at 6 KTS
Visibility
10,000+ meters
Flight Rules
VFR
Cloud Levels
  • Few at 38,000' AGL
Temperature
11°C / 52°F
Dewpoint
C / 32°F
Humidity
47%
Altimeter
30.06" Hg
Pressure
1017.92 hPa
Previous

3 hours ago

ETWM 180920Z 16004KT 9999 FEW380 09/00 Q1018 BLU+
Observed
Feb-18 @ 09:20 UTC
Wind
  • 160° at 4 KTS
Visibility
10,000+ meters
Flight Rules
VFR
Cloud Levels
  • Few at 38,000' AGL
Temperature
C / 48°F
Dewpoint
C / 32°F
Humidity
54%
Altimeter
30.06" Hg
Pressure
1017.92 hPa